createdAt,value
2023-03-30T00:02:22.086Z,12.52
2023-03-30T00:05:02.145Z,12.55
2023-03-30T00:07:30.250Z,12.56
2023-03-30T00:10:02.927Z,12.62
2023-03-30T00:12:33.170Z,12.62
2023-03-30T00:15:00.981Z,12.67
2023-03-30T00:17:33.787Z,12.70
2023-03-30T00:20:06.376Z,12.73
2023-03-30T00:22:40.162Z,12.71
2023-03-30T00:25:15.511Z,12.74
2023-03-30T00:27:48.336Z,12.72
2023-03-30T00:30:18.744Z,12.77
2023-03-30T00:32:48.336Z,12.78
2023-03-30T00:35:16.188Z,12.75
2023-03-30T00:37:45.768Z,12.78
2023-03-30T00:40:19.106Z,12.78
2023-03-30T00:42:48.487Z,12.75
2023-03-30T00:45:30.316Z,12.74
2023-03-30T00:48:12.636Z,12.71
2023-03-30T00:50:43.951Z,12.70
2023-03-30T00:53:17.340Z,12.66
2023-03-30T00:55:47.390Z,12.65
2023-03-30T00:58:17.017Z,12.61
2023-03-30T01:00:47.328Z,12.59
2023-03-30T01:03:21.308Z,12.56
2023-03-30T01:05:50.443Z,12.54
2023-03-30T01:08:20.081Z,12.49
2023-03-30T01:10:48.156Z,12.48
2023-03-30T01:13:16.763Z,12.46
2023-03-30T01:15:55.923Z,12.42
2023-03-30T01:18:37.681Z,12.39
2023-03-30T01:21:37.741Z,12.35
2023-03-30T01:24:35.709Z,12.35
2023-03-30T01:27:19.936Z,12.34
2023-03-30T01:30:03.315Z,12.34
2023-03-30T01:32:57.192Z,12.30
2023-03-30T01:36:00.083Z,12.29
2023-03-30T01:41:33.442Z,12.30
2023-03-30T01:44:06.506Z,12.33
2023-03-30T01:46:40.420Z,12.32
2023-03-30T01:49:16.310Z,12.30
2023-03-30T01:51:50.836Z,12.32
2023-03-30T01:54:22.166Z,12.30
2023-03-30T01:56:56.136Z,12.29
2023-03-30T01:59:28.217Z,12.28
2023-03-30T02:02:00.569Z,12.26
2023-03-30T02:04:31.938Z,12.25
2023-03-30T02:07:04.105Z,12.21
2023-03-30T02:09:33.828Z,12.18
2023-03-30T02:12:04.919Z,12.18
2023-03-30T02:14:35.257Z,12.18
2023-03-30T02:17:07.481Z,12.14
2023-03-30T02:19:37.900Z,12.13
2023-03-30T02:22:06.287Z,12.15
2023-03-30T02:24:35.347Z,12.14
2023-03-30T02:27:05.264Z,12.16
2023-03-30T02:29:36.511Z,12.18
2023-03-30T02:32:05.277Z,12.18
2023-03-30T02:34:47.085Z,12.18
2023-03-30T02:37:30.159Z,12.22
2023-03-30T02:40:13.409Z,12.23
2023-03-30T02:43:03.389Z,12.23
2023-03-30T02:45:42.914Z,12.24
2023-03-30T02:48:30.830Z,12.25
2023-03-30T02:51:12.725Z,12.25
2023-03-30T02:53:45.452Z,12.27
2023-03-30T02:56:19.343Z,12.25
2023-03-30T02:58:50.726Z,12.25
2023-03-30T03:01:26.881Z,12.28
2023-03-30T03:03:59.137Z,12.25
2023-03-30T03:06:28.590Z,12.25
2023-03-30T03:08:57.552Z,12.26
2023-03-30T03:11:25.849Z,12.26
2023-03-30T03:13:55.667Z,12.28
2023-03-30T03:16:23.811Z,12.27
2023-03-30T03:18:52.567Z,12.26
2023-03-30T03:21:20.408Z,12.24
2023-03-30T03:23:48.679Z,12.23
2023-03-30T03:26:16.431Z,12.19
2023-03-30T03:28:44.885Z,12.20
2023-03-30T03:31:14.229Z,12.19
2023-03-30T03:33:42.043Z,12.20
2023-03-30T03:36:12.146Z,12.20
2023-03-30T03:38:40.236Z,12.25
2023-03-30T03:41:08.305Z,12.23
2023-03-30T03:43:36.708Z,12.20
2023-03-30T03:46:04.582Z,12.24
2023-03-30T03:48:33.738Z,12.29
2023-03-30T03:51:01.721Z,12.31
2023-03-30T03:53:32.274Z,12.33
2023-03-30T03:56:00.282Z,12.33
2023-03-30T03:58:28.753Z,12.34
2023-03-30T04:01:00.058Z,12.34
2023-03-30T04:03:29.018Z,12.36
2023-03-30T04:06:02.181Z,12.33
2023-03-30T04:08:30.512Z,12.33
2023-03-30T04:11:06.088Z,12.31
2023-03-30T04:13:33.970Z,12.29
2023-03-30T04:16:01.863Z,12.27
2023-03-30T04:18:31.577Z,12.25
2023-03-30T04:21:03.118Z,12.25
2023-03-30T04:23:33.846Z,12.23
2023-03-30T04:26:02.658Z,12.21
2023-03-30T04:28:31.774Z,12.18
2023-03-30T04:31:00.581Z,12.18
2023-03-30T04:33:28.327Z,12.15
2023-03-30T04:35:56.152Z,12.12
2023-03-30T04:38:25.408Z,12.11
2023-03-30T04:40:53.752Z,12.07
2023-03-30T04:43:22.981Z,12.00
2023-03-30T04:45:51.884Z,11.95
2023-03-30T04:48:20.639Z,11.94
2023-03-30T04:50:50.363Z,11.91
2023-03-30T04:53:19.503Z,11.84
2023-03-30T04:55:51.720Z,11.86
2023-03-30T04:58:19.808Z,11.82
2023-03-30T05:00:47.617Z,11.81
2023-03-30T05:03:15.572Z,11.81
2023-03-30T05:05:43.414Z,11.77
2023-03-30T05:08:11.216Z,11.75
2023-03-30T05:10:39.022Z,11.74
2023-03-30T05:13:08.162Z,11.68
2023-03-30T05:15:35.939Z,11.61
2023-03-30T05:18:03.695Z,11.54
2023-03-30T05:20:31.611Z,11.56
2023-03-30T05:22:59.387Z,11.54
2023-03-30T05:25:27.219Z,11.50
2023-03-30T05:27:54.943Z,11.48
2023-03-30T05:30:24.046Z,11.45
2023-03-30T05:32:51.873Z,11.42
2023-03-30T05:35:19.803Z,11.39
2023-03-30T05:37:49.661Z,11.36
2023-03-30T05:40:18.266Z,11.31
2023-03-30T05:42:46.064Z,11.27
2023-03-30T05:45:14.030Z,11.23
2023-03-30T05:47:43.222Z,11.22
2023-03-30T05:50:11.926Z,11.18
2023-03-30T05:52:39.687Z,11.17
2023-03-30T05:55:07.934Z,11.19
2023-03-30T05:57:35.769Z,11.15
2023-03-30T06:00:06.729Z,11.14
2023-03-30T06:02:34.970Z,11.13
2023-03-30T06:05:04.589Z,11.11
2023-03-30T06:07:32.747Z,11.03
2023-03-30T06:10:01.566Z,11.04
2023-03-30T06:12:29.397Z,11.07
2023-03-30T06:14:57.451Z,11.10
2023-03-30T06:17:26.035Z,11.11
2023-03-30T06:19:54.408Z,11.13
2023-03-30T06:22:23.588Z,11.16
2023-03-30T06:24:51.475Z,11.17
2023-03-30T06:27:19.256Z,11.18
2023-03-30T06:29:47.110Z,11.13
2023-03-30T06:32:14.866Z,11.17
2023-03-30T06:34:42.658Z,11.17
2023-03-30T06:37:10.433Z,11.13
2023-03-30T06:39:39.701Z,11.17
2023-03-30T06:42:07.596Z,11.24
2023-03-30T06:44:35.343Z,11.27
2023-03-30T06:47:03.433Z,11.34
2023-03-30T06:49:31.402Z,11.34
2023-03-30T06:52:01.502Z,11.37
2023-03-30T06:54:31.006Z,11.42
2023-03-30T06:57:00.259Z,11.39
2023-03-30T06:59:28.258Z,11.36
2023-03-30T07:02:00.871Z,11.42
2023-03-30T07:04:29.119Z,11.44
2023-03-30T07:06:57.905Z,11.46
2023-03-30T07:09:28.738Z,11.50
2023-03-30T07:11:56.755Z,11.55
2023-03-30T07:14:25.990Z,11.59
2023-03-30T07:16:54.191Z,11.64
2023-03-30T07:19:21.951Z,11.72
2023-03-30T07:21:49.694Z,11.78
2023-03-30T07:24:17.606Z,11.77
2023-03-30T07:26:45.576Z,11.84
2023-03-30T07:29:15.419Z,11.90
2023-03-30T07:31:44.890Z,11.95
2023-03-30T07:34:12.754Z,11.99
2023-03-30T07:36:40.479Z,11.97
2023-03-30T07:39:08.825Z,11.93
2023-03-30T07:41:36.575Z,11.98
2023-03-30T07:44:04.368Z,11.99
2023-03-30T07:46:32.248Z,12.04
2023-03-30T07:49:01.611Z,12.05
2023-03-30T07:51:29.479Z,12.06
2023-03-30T07:53:58.504Z,12.07
2023-03-30T07:56:26.310Z,12.02
2023-03-30T07:58:54.176Z,12.01
2023-03-30T08:01:22.151Z,12.04
2023-03-30T08:03:50.010Z,12.02
2023-03-30T08:06:19.237Z,12.00
2023-03-30T08:08:47.872Z,12.03
2023-03-30T08:11:16.290Z,12.02
2023-03-30T08:13:44.555Z,11.93
2023-03-30T08:16:12.562Z,11.92
2023-03-30T08:18:41.680Z,11.94
2023-03-30T08:21:10.938Z,11.91
2023-03-30T08:23:40.162Z,11.94
2023-03-30T08:26:07.980Z,11.86
2023-03-30T08:28:36.681Z,11.88
2023-03-30T08:31:06.377Z,11.95
2023-03-30T08:33:34.878Z,12.04
2023-03-30T08:36:02.702Z,12.14
2023-03-30T08:38:30.638Z,12.24
2023-03-30T08:40:59.834Z,12.36
2023-03-30T08:43:42.512Z,12.38
2023-03-30T08:46:15.571Z,12.45
2023-03-30T08:48:44.572Z,12.47
2023-03-30T08:51:23.442Z,12.44
2023-03-30T08:53:56.054Z,12.51
2023-03-30T08:56:28.419Z,12.51
2023-03-30T08:59:05.442Z,12.64
2023-03-30T09:01:41.084Z,12.75
2023-03-30T09:04:18.942Z,12.86
2023-03-30T09:06:51.887Z,13.06
2023-03-30T09:09:22.101Z,13.14
2023-03-30T09:11:56.547Z,13.25
2023-03-30T09:14:33.222Z,13.29
2023-03-30T09:17:08.639Z,13.25
2023-03-30T09:19:41.474Z,13.14
2023-03-30T09:22:13.619Z,13.27
2023-03-30T09:24:42.105Z,13.44
2023-03-30T09:27:17.203Z,13.54
2023-03-30T09:29:49.008Z,13.66
2023-03-30T09:32:25.157Z,13.64
2023-03-30T09:35:00.311Z,13.54
2023-03-30T09:37:29.795Z,13.52
2023-03-30T09:39:59.050Z,13.42
2023-03-30T09:42:36.403Z,13.38
2023-03-30T09:45:12.771Z,13.34
2023-03-30T09:47:42.502Z,13.38
2023-03-30T09:50:13.104Z,13.51
2023-03-30T09:52:41.848Z,13.58
2023-03-30T09:55:28.622Z,13.69
2023-03-30T09:58:13.114Z,13.85
2023-03-30T10:00:41.114Z,13.93
2023-03-30T10:03:19.713Z,14.05
2023-03-30T10:06:03.029Z,14.05
2023-03-30T10:08:31.627Z,14.06
2023-03-30T10:11:01.162Z,14.12
2023-03-30T10:13:34.243Z,14.19
2023-03-30T10:16:07.286Z,14.31
2023-03-30T10:18:41.075Z,14.19
2023-03-30T10:21:18.802Z,13.95
2023-03-30T10:23:48.319Z,13.87
2023-03-30T10:26:19.279Z,13.88
2023-03-30T10:28:56.523Z,13.91
2023-03-30T10:31:28.071Z,13.96
2023-03-30T10:34:00.632Z,13.97
2023-03-30T10:36:31.841Z,14.08
2023-03-30T10:39:08.973Z,14.12
2023-03-30T10:41:40.819Z,14.12
2023-03-30T10:44:20.406Z,14.15
2023-03-30T10:46:51.049Z,14.08
2023-03-30T10:49:31.458Z,14.07
2023-03-30T10:52:09.476Z,14.02
2023-03-30T10:54:42.951Z,14.07
2023-03-30T10:57:14.308Z,14.10
2023-03-30T11:00:15.535Z,14.09
2023-03-30T11:02:52.703Z,14.17
2023-03-30T11:05:25.307Z,14.21
2023-03-30T11:07:57.072Z,14.18
2023-03-30T11:10:31.437Z,14.19
2023-03-30T11:13:03.461Z,14.35
2023-03-30T11:15:38.627Z,14.41
2023-03-30T11:18:14.500Z,14.47
2023-03-30T11:20:48.719Z,14.43
2023-03-30T11:23:22.849Z,14.43
2023-03-30T11:26:03.649Z,14.53
2023-03-30T11:28:47.479Z,14.48
2023-03-30T11:31:29.241Z,14.47
2023-03-30T11:34:04.275Z,14.52
2023-03-30T11:36:37.858Z,14.52
2023-03-30T11:39:28.824Z,14.47
2023-03-30T11:42:07.253Z,14.36
2023-03-30T11:44:35.097Z,14.37
2023-03-30T11:47:20.235Z,14.31
2023-03-30T11:50:03.043Z,14.15
2023-03-30T11:52:35.813Z,14.03
2023-03-30T11:55:34.779Z,13.82
2023-03-30T11:58:10.513Z,13.84
2023-03-30T12:00:50.422Z,14.06
2023-03-30T12:03:31.089Z,14.18
2023-03-30T12:06:07.437Z,14.31
2023-03-30T12:08:54.076Z,14.45
2023-03-30T12:11:31.843Z,14.55
2023-03-30T12:14:00.489Z,14.49
2023-03-30T12:16:38.913Z,14.56
2023-03-30T12:19:14.737Z,14.40
2023-03-30T12:21:49.055Z,14.51
2023-03-30T12:24:24.180Z,14.60
2023-03-30T12:27:04.669Z,14.56
2023-03-30T12:30:02.385Z,14.49
2023-03-30T12:32:32.052Z,14.58
2023-03-30T12:35:01.228Z,14.36
2023-03-30T12:37:34.802Z,14.28
2023-03-30T12:40:07.375Z,14.14
2023-03-30T12:42:39.619Z,13.98
2023-03-30T12:45:32.106Z,13.92
2023-03-30T12:48:17.729Z,13.86
2023-03-30T12:50:57.768Z,13.94
2023-03-30T12:54:03.787Z,13.97
2023-03-30T12:56:39.102Z,14.05
2023-03-30T12:59:31.137Z,14.20
2023-03-30T13:02:16.990Z,14.28
2023-03-30T13:04:48.935Z,14.40
2023-03-30T13:07:23.263Z,14.58
2023-03-30T13:09:57.005Z,14.77
2023-03-30T13:12:41.066Z,14.92
2023-03-30T13:15:34.906Z,14.71
2023-03-30T13:18:04.356Z,14.79
2023-03-30T13:20:34.240Z,14.88
2023-03-30T13:23:32.180Z,14.89
2023-03-30T13:26:32.358Z,15.04
2023-03-30T13:29:10.301Z,15.20
2023-03-30T13:31:52.132Z,15.16
2023-03-30T13:34:30.260Z,15.17
2023-03-30T13:37:04.878Z,15.16
2023-03-30T13:39:41.792Z,15.21
2023-03-30T13:42:27.173Z,15.28
2023-03-30T13:45:03.054Z,15.38
2023-03-30T13:47:45.214Z,15.49
2023-03-30T13:50:24.865Z,15.65
2023-03-30T13:52:56.419Z,15.61
2023-03-30T13:55:32.525Z,15.50
2023-03-30T13:58:04.612Z,15.36
2023-03-30T14:00:40.086Z,15.31
2023-03-30T14:03:37.204Z,15.17
2023-03-30T14:06:08.930Z,15.20
2023-03-30T14:08:38.900Z,15.25
2023-03-30T14:11:15.628Z,15.18
2023-03-30T14:13:44.687Z,15.35
2023-03-30T14:16:18.567Z,15.36
2023-03-30T14:18:46.695Z,15.39
2023-03-30T14:21:18.563Z,15.36
2023-03-30T14:23:51.070Z,15.36
2023-03-30T14:26:24.501Z,15.33
2023-03-30T14:28:56.703Z,15.32
2023-03-30T14:31:26.998Z,15.41
2023-03-30T14:33:55.179Z,15.35
2023-03-30T14:36:23.473Z,15.29
2023-03-30T14:38:53.945Z,15.26
2023-03-30T14:41:27.489Z,15.32
2023-03-30T14:43:56.915Z,15.30
2023-03-30T14:46:26.659Z,15.32
2023-03-30T14:48:55.179Z,15.30
2023-03-30T14:51:26.286Z,15.20
2023-03-30T14:53:55.872Z,15.16
2023-03-30T14:56:25.855Z,15.06
2023-03-30T14:58:55.691Z,14.97
2023-03-30T15:01:31.079Z,14.92
2023-03-30T15:04:01.202Z,14.93
2023-03-30T15:06:31.382Z,14.95
2023-03-30T15:09:03.330Z,14.92
2023-03-30T15:11:35.706Z,14.80
2023-03-30T15:14:09.785Z,14.80
2023-03-30T15:16:38.855Z,14.77
2023-03-30T15:19:11.716Z,14.79
2023-03-30T15:21:43.299Z,14.74
2023-03-30T15:24:17.606Z,14.68
2023-03-30T15:26:49.695Z,14.60
2023-03-30T15:29:19.585Z,14.61
2023-03-30T15:31:47.432Z,14.50
2023-03-30T15:34:17.443Z,14.49
2023-03-30T15:36:46.314Z,14.37
2023-03-30T15:39:22.041Z,14.35
2023-03-30T15:42:01.269Z,14.36
2023-03-30T15:44:29.855Z,14.39
2023-03-30T15:46:59.301Z,14.38
2023-03-30T15:49:31.765Z,14.31
2023-03-30T15:52:02.602Z,14.38
2023-03-30T15:54:35.031Z,14.39
2023-03-30T15:57:08.402Z,14.35
2023-03-30T15:59:39.908Z,14.21
2023-03-30T16:02:16.360Z,14.13
2023-03-30T16:04:44.301Z,14.10
2023-03-30T16:07:16.823Z,14.15
2023-03-30T16:09:44.603Z,14.12
2023-03-30T16:12:17.849Z,14.19
2023-03-30T16:14:46.704Z,14.21
2023-03-30T16:17:14.590Z,14.22
2023-03-30T16:19:42.872Z,14.21
2023-03-30T16:22:12.115Z,14.19
2023-03-30T16:24:40.907Z,14.17
2023-03-30T16:27:08.912Z,14.08
2023-03-30T16:29:38.133Z,14.10
2023-03-30T16:32:06.399Z,14.13
2023-03-30T16:34:34.149Z,14.18
2023-03-30T16:37:03.687Z,14.09
2023-03-30T16:39:31.800Z,13.91
2023-03-30T16:42:00.290Z,13.76
2023-03-30T16:44:28.153Z,13.73
2023-03-30T16:46:57.298Z,13.71
2023-03-30T16:49:26.579Z,13.74
2023-03-30T16:51:57.916Z,13.84
2023-03-30T16:56:57.002Z,13.74
2023-03-30T16:59:26.757Z,13.69
2023-03-30T17:01:54.522Z,13.71
2023-03-30T17:04:23.703Z,13.67
2023-03-30T17:06:51.631Z,13.63
2023-03-30T17:09:21.180Z,13.55
2023-03-30T17:11:49.836Z,13.48
2023-03-30T17:14:17.908Z,13.42
2023-03-30T17:16:45.771Z,13.46
2023-03-30T17:19:15.053Z,13.42
2023-03-30T17:21:45.885Z,13.42
2023-03-30T17:24:16.367Z,13.33
2023-03-30T17:26:44.361Z,13.29
2023-03-30T17:29:12.243Z,13.25
2023-03-30T17:31:45.335Z,13.25
2023-03-30T17:34:13.304Z,13.17
2023-03-30T17:36:41.088Z,13.12
2023-03-30T17:39:13.176Z,12.99
2023-03-30T17:41:41.289Z,12.80
2023-03-30T17:44:09.066Z,12.84
2023-03-30T17:46:36.911Z,12.83
2023-03-30T17:49:04.912Z,12.85
2023-03-30T17:51:32.725Z,12.82
2023-03-30T17:54:00.477Z,12.82
2023-03-30T17:56:29.569Z,12.78
2023-03-30T17:58:57.352Z,12.79
2023-03-30T18:01:25.150Z,12.78
2023-03-30T18:03:53.090Z,12.72
2023-03-30T18:06:20.850Z,12.73
2023-03-30T18:08:48.646Z,12.71
2023-03-30T18:11:16.394Z,12.64
2023-03-30T18:13:45.517Z,12.59
2023-03-30T18:16:13.877Z,12.64
2023-03-30T18:18:41.684Z,12.59
2023-03-30T18:21:11.047Z,12.61
2023-03-30T18:23:38.877Z,12.59
2023-03-30T18:26:11.262Z,12.56
2023-03-30T18:28:43.463Z,12.52
2023-03-30T18:31:13.427Z,12.47
2023-03-30T18:33:41.250Z,12.48
2023-03-30T18:36:12.960Z,12.49
2023-03-30T18:38:41.483Z,12.47
2023-03-30T18:41:11.470Z,12.41
2023-03-30T18:43:42.336Z,12.40
2023-03-30T18:46:13.842Z,12.38
2023-03-30T18:48:41.720Z,12.36
2023-03-30T18:51:12.114Z,12.29
2023-03-30T18:53:40.145Z,12.28
2023-03-30T18:56:10.365Z,12.24
2023-03-30T18:58:42.038Z,12.23
2023-03-30T19:01:12.920Z,12.19
2023-03-30T19:03:42.491Z,12.18
2023-03-30T19:06:13.727Z,12.15
2023-03-30T19:08:43.730Z,12.13
2023-03-30T19:11:16.281Z,12.13
2023-03-30T19:13:44.088Z,12.09
2023-03-30T19:16:11.856Z,12.08
2023-03-30T19:18:39.965Z,12.06
2023-03-30T19:21:10.809Z,12.02
2023-03-30T19:23:38.614Z,12.00
2023-03-30T19:26:07.445Z,11.96
2023-03-30T19:28:35.948Z,11.96
2023-03-30T19:31:10.217Z,11.96
2023-03-30T19:33:38.017Z,11.93
2023-03-30T19:36:07.237Z,11.91
2023-03-30T19:38:37.401Z,11.87
2023-03-30T19:41:06.775Z,11.87
2023-03-30T19:43:34.835Z,11.85
2023-03-30T19:46:02.790Z,11.81
2023-03-30T19:48:30.667Z,11.79
2023-03-30T19:50:58.500Z,11.76
2023-03-30T19:53:26.368Z,11.73
2023-03-30T19:55:55.607Z,11.70
2023-03-30T19:58:23.389Z,11.68
2023-03-30T20:00:51.253Z,11.66
2023-03-30T20:03:19.266Z,11.63
2023-03-30T20:05:51.155Z,11.62
2023-03-30T20:08:24.271Z,11.59
2023-03-30T20:10:53.149Z,11.54
2023-03-30T20:13:24.020Z,11.54
2023-03-30T20:15:56.098Z,11.54
2023-03-30T20:18:24.231Z,11.52
2023-03-30T20:20:52.651Z,11.49
2023-03-30T20:23:20.527Z,11.49
2023-03-30T20:25:49.370Z,11.44
2023-03-30T20:28:17.404Z,11.45
2023-03-30T20:30:47.629Z,11.44
2023-03-30T20:33:15.570Z,11.41
2023-03-30T20:35:43.552Z,11.38
2023-03-30T20:38:11.351Z,11.35
2023-03-30T20:40:39.130Z,11.36
2023-03-30T20:43:10.732Z,11.34
2023-03-30T20:45:46.128Z,11.31
2023-03-30T20:48:25.934Z,11.31
2023-03-30T20:50:54.269Z,11.29
2023-03-30T20:53:22.951Z,11.27
2023-03-30T20:55:51.122Z,11.25
2023-03-30T20:58:18.854Z,11.24
2023-03-30T21:00:47.444Z,11.22
2023-03-30T21:03:16.785Z,11.17
2023-03-30T21:05:44.742Z,11.15
2023-03-30T21:08:12.502Z,11.14
2023-03-30T21:10:43.009Z,11.13
2023-03-30T21:13:11.011Z,11.10
2023-03-30T21:15:38.756Z,11.11
2023-03-30T21:18:06.727Z,11.11
2023-03-30T21:20:35.916Z,11.08
2023-03-30T21:23:03.747Z,11.07
2023-03-30T21:25:32.113Z,11.06
2023-03-30T21:27:59.860Z,11.04
2023-03-30T21:30:28.940Z,10.99
2023-03-30T21:32:56.747Z,11.02
2023-03-30T21:35:24.974Z,11.00
2023-03-30T21:37:54.029Z,10.98
2023-03-30T21:40:22.337Z,10.96
2023-03-30T21:42:50.111Z,10.97
2023-03-30T21:45:18.262Z,10.96
2023-03-30T21:47:46.070Z,10.96
2023-03-30T21:50:13.830Z,10.94
2023-03-30T21:52:41.530Z,10.89
2023-03-30T21:55:10.827Z,10.86
2023-03-30T21:57:38.591Z,10.88
2023-03-30T22:00:10.183Z,10.89
2023-03-30T22:02:38.297Z,10.89
2023-03-30T22:05:06.935Z,10.86
2023-03-30T22:07:34.646Z,10.87
2023-03-30T22:10:02.412Z,10.81
2023-03-30T22:12:31.637Z,10.75
2023-03-30T22:14:59.359Z,10.74
2023-03-30T22:17:34.989Z,10.76
2023-03-30T22:20:02.870Z,10.75
2023-03-30T22:22:30.624Z,10.77
2023-03-30T22:24:58.318Z,10.74
2023-03-30T22:27:26.395Z,10.74
2023-03-30T22:29:55.501Z,10.71
2023-03-30T22:32:23.471Z,10.73
2023-03-30T22:34:51.307Z,10.73
2023-03-30T22:37:19.145Z,10.72
2023-03-30T22:39:46.955Z,10.74
2023-03-30T22:42:14.792Z,10.71
2023-03-30T22:44:42.738Z,10.67
2023-03-30T22:47:11.908Z,10.69
2023-03-30T22:49:40.154Z,10.69
2023-03-30T22:52:08.027Z,10.71
2023-03-30T22:54:35.787Z,10.68
2023-03-30T22:57:03.585Z,10.68
2023-03-30T22:59:31.655Z,10.65
2023-03-30T23:01:59.426Z,10.63
2023-03-30T23:04:29.007Z,10.60
2023-03-30T23:06:56.805Z,10.59
2023-03-30T23:09:24.537Z,10.58
2023-03-30T23:11:53.632Z,10.57
2023-03-30T23:14:21.805Z,10.55
2023-03-30T23:16:52.005Z,10.53
2023-03-30T23:19:19.874Z,10.48
2023-03-30T23:21:50.303Z,10.48
2023-03-30T23:24:18.057Z,10.48
2023-03-30T23:26:46.225Z,10.49
2023-03-30T23:29:14.050Z,10.48
2023-03-30T23:31:41.769Z,10.42
2023-03-30T23:34:12.940Z,10.41
2023-03-30T23:36:40.771Z,10.41
2023-03-30T23:39:10.275Z,10.38
2023-03-30T23:41:37.982Z,10.38
2023-03-30T23:44:06.116Z,10.37
2023-03-30T23:46:34.270Z,10.36
2023-03-30T23:49:03.300Z,10.34
2023-03-30T23:51:31.063Z,10.37
2023-03-30T23:54:06.113Z,10.33
2023-03-30T23:56:36.028Z,10.31
2023-03-30T23:59:04.513Z,10.33
